Accueil
METAR-TAF:

METAR-TAF

Aéroports :

Base aérienne Volkel-Uden

Uden, Pays-Bas

latitude: 51-39N, longitude: 005-42E, altitude: 22 m

Observation

Le bulletin a été fait il y a 20 minutes, à 20:48 UTC
Vent 11 kt de nord-est
Température 2°C
Humidité 69%
Pression 1026 hPa
Visibilité 10 km ou plus
Nuages épars à une hauteur de 2400 ft

METAR: EHVK 182048Z AUTO 05011KT 9999 SCT024 02/M03 Q1026 WHT

Heure: 22:08 (21:08 UTC)


TAF: absent

Observations et prévisions météorologiques de plus de 4000 aéroports (messages METAR et TAF).

Les stations disponibles sont représentées par des disques jaunes et rouges sur la carte.

Passer la souris dessus pour voir le nom de la station.

Cliquer dessus pour voir les observations et prévisions météorologiques.

Pour changer de carte: cliquez sur les boutons verts avec une croix noire pour zoomer, sur le bouton vert avec un tiret pour effectuer un zoom arrière, ou sur les flèches vertes pour les cartes adjacentes.


METAR-TAF: